createdAt,value
2024-02-06T00:01:53.507Z,16.60
2024-02-06T00:04:21.660Z,16.60
2024-02-06T00:06:54.332Z,16.60
2024-02-06T00:09:22.462Z,16.60
2024-02-06T00:11:50.441Z,16.60
2024-02-06T00:14:18.382Z,16.60
2024-02-06T00:16:49.473Z,16.50
2024-02-06T00:19:17.551Z,16.50
2024-02-06T00:21:45.683Z,16.50
2024-02-06T00:24:14.915Z,16.50
2024-02-06T00:26:45.036Z,16.50
2024-02-06T00:29:12.968Z,16.50
2024-02-06T00:31:43.793Z,16.50
2024-02-06T00:34:11.886Z,16.60
2024-02-06T00:36:42.596Z,16.60
2024-02-06T00:39:10.483Z,16.50
2024-02-06T00:41:44.148Z,16.50
2024-02-06T00:44:18.413Z,16.50
2024-02-06T00:46:46.428Z,16.50
2024-02-06T00:49:14.795Z,16.50
2024-02-06T00:51:51.980Z,16.50
2024-02-06T00:54:19.924Z,16.50
2024-02-06T00:56:49.288Z,16.50
2024-02-06T00:59:20.692Z,16.40
2024-02-06T01:01:49.037Z,16.40
2024-02-06T01:04:17.769Z,16.40
2024-02-06T01:06:51.017Z,16.50
2024-02-06T01:09:19.020Z,16.40
2024-02-06T01:11:49.364Z,16.40
2024-02-06T01:14:18.810Z,16.50
2024-02-06T01:16:46.772Z,16.60
2024-02-06T01:19:14.835Z,16.50
2024-02-06T01:21:45.881Z,16.40
2024-02-06T01:24:13.795Z,16.40
2024-02-06T01:26:44.798Z,16.30
2024-02-06T01:29:16.051Z,16.30
2024-02-06T01:31:47.188Z,16.40
2024-02-06T01:34:17.079Z,16.40
2024-02-06T01:36:45.180Z,16.30
2024-02-06T01:39:13.966Z,16.40
2024-02-06T01:41:44.266Z,16.30
2024-02-06T01:44:12.359Z,16.30
2024-02-06T01:46:41.467Z,16.40
2024-02-06T01:49:12.020Z,16.40
2024-02-06T01:51:42.253Z,16.40
2024-02-06T01:54:16.962Z,16.40
2024-02-06T01:56:47.296Z,16.40
2024-02-06T01:59:18.564Z,16.40
2024-02-06T02:01:50.249Z,16.40
2024-02-06T02:04:40.945Z,16.40
2024-02-06T02:07:10.628Z,16.40
2024-02-06T02:09:41.342Z,16.40
2024-02-06T02:12:09.799Z,16.40
2024-02-06T02:14:40.105Z,16.40
2024-02-06T02:17:08.033Z,16.40
2024-02-06T02:19:36.060Z,16.40
2024-02-06T02:22:05.832Z,16.40
2024-02-06T02:24:43.847Z,16.40
2024-02-06T02:27:14.958Z,16.30
2024-02-06T02:29:46.235Z,16.40
2024-02-06T02:32:17.422Z,16.40
2024-02-06T02:35:03.256Z,16.50
2024-02-06T02:37:38.982Z,16.50
2024-02-06T02:40:08.647Z,16.50
2024-02-06T02:42:44.604Z,16.40
2024-02-06T02:45:12.524Z,16.30
2024-02-06T02:47:40.540Z,16.20
2024-02-06T02:50:14.856Z,16.40
2024-02-06T02:52:46.706Z,16.30
2024-02-06T02:55:17.479Z,16.40
2024-02-06T02:57:45.373Z,16.40
2024-02-06T03:00:22.657Z,16.40
2024-02-06T03:02:58.104Z,16.40
2024-02-06T03:05:28.822Z,16.30
2024-02-06T03:07:58.095Z,16.30
2024-02-06T03:10:31.703Z,16.30
2024-02-06T03:12:59.827Z,16.40
2024-02-06T03:15:30.661Z,16.50
2024-02-06T03:18:01.276Z,16.50
2024-02-06T03:20:32.215Z,16.40
2024-02-06T03:23:07.013Z,16.40
2024-02-06T03:25:38.146Z,16.30
2024-02-06T03:28:08.825Z,16.30
2024-02-06T03:30:36.740Z,16.30
2024-02-06T03:33:17.136Z,16.30
2024-02-06T03:35:46.374Z,16.30
2024-02-06T03:38:15.615Z,16.30
2024-02-06T03:40:45.686Z,16.30
2024-02-06T03:43:27.585Z,16.40
2024-02-06T03:45:58.415Z,16.30
2024-02-06T03:51:17.678Z,16.40
2024-02-06T03:53:54.245Z,16.40
2024-02-06T03:56:25.163Z,16.40
2024-02-06T03:58:58.372Z,16.30
2024-02-06T04:01:32.532Z,16.30
2024-02-06T04:04:01.277Z,16.40
2024-02-06T04:06:33.709Z,16.40
2024-02-06T04:09:08.480Z,16.30
2024-02-06T04:11:36.398Z,16.30
2024-02-06T04:14:04.708Z,16.20
2024-02-06T04:16:55.411Z,16.20
2024-02-06T04:19:26.908Z,16.20
2024-02-06T04:22:01.114Z,16.20
2024-02-06T04:24:38.760Z,16.30
2024-02-06T04:27:06.915Z,16.40
2024-02-06T04:29:35.130Z,16.50
2024-02-06T04:32:03.588Z,16.40
2024-02-06T04:34:31.569Z,16.40
2024-02-06T04:37:02.357Z,16.30
2024-02-06T04:39:30.798Z,16.40
2024-02-06T04:42:07.042Z,16.40
2024-02-06T04:44:34.965Z,16.40
2024-02-06T04:47:09.179Z,16.30
2024-02-06T04:49:37.283Z,16.20
2024-02-06T04:52:05.745Z,16.20
2024-02-06T04:54:36.698Z,16.30
2024-02-06T04:57:08.492Z,16.30
2024-02-06T04:59:36.440Z,16.30
2024-02-06T05:02:04.462Z,16.30
2024-02-06T05:04:33.014Z,16.20
2024-02-06T05:07:01.038Z,16.20
2024-02-06T05:09:31.850Z,16.10
2024-02-06T05:12:03.393Z,16.30
2024-02-06T05:14:32.945Z,16.40
2024-02-06T05:17:07.064Z,16.30
2024-02-06T05:19:42.116Z,16.20
2024-02-06T05:22:15.137Z,16.20
2024-02-06T05:24:52.090Z,16.30
2024-02-06T05:27:20.211Z,16.30
2024-02-06T05:29:49.905Z,16.30
2024-02-06T05:32:18.102Z,16.30
2024-02-06T05:34:55.070Z,16.30
2024-02-06T05:37:23.085Z,16.20
2024-02-06T05:39:53.440Z,16.20
2024-02-06T05:42:21.888Z,16.40
2024-02-06T05:44:54.064Z,16.60
2024-02-06T05:47:21.978Z,16.60
2024-02-06T05:49:55.296Z,16.70
2024-02-06T05:52:23.426Z,16.60
2024-02-06T05:54:53.699Z,16.60
2024-02-06T05:57:27.962Z,16.50
2024-02-06T06:00:00.425Z,16.60
2024-02-06T06:02:31.074Z,16.70
2024-02-06T06:05:01.405Z,16.60
2024-02-06T06:07:39.543Z,16.60
2024-02-06T06:10:08.777Z,16.60
2024-02-06T06:12:42.553Z,16.50
2024-02-06T06:15:17.922Z,16.50
2024-02-06T06:17:45.874Z,16.50
2024-02-06T06:20:14.898Z,16.60
2024-02-06T06:22:45.963Z,16.60
2024-02-06T06:25:19.787Z,16.60
2024-02-06T06:27:48.443Z,16.60
2024-02-06T06:30:25.786Z,16.60
2024-02-06T06:32:53.743Z,16.60
2024-02-06T06:35:24.536Z,16.60
2024-02-06T06:37:52.565Z,16.60
2024-02-06T06:40:20.867Z,16.70
2024-02-06T06:42:48.812Z,16.60
2024-02-06T06:45:18.115Z,16.60
2024-02-06T06:47:46.148Z,16.60
2024-02-06T06:50:14.314Z,16.60
2024-02-06T06:52:42.927Z,16.70
2024-02-06T06:55:14.045Z,16.60
2024-02-06T06:57:44.217Z,16.70
2024-02-06T07:00:18.126Z,16.90
2024-02-06T07:02:46.042Z,16.90
2024-02-06T07:05:22.617Z,16.80
2024-02-06T07:07:50.908Z,16.80
2024-02-06T07:10:18.894Z,17.00
2024-02-06T07:12:46.876Z,17.00
2024-02-06T07:15:17.013Z,17.00
2024-02-06T07:17:46.503Z,16.90
2024-02-06T07:20:14.630Z,16.90
2024-02-06T07:22:42.849Z,17.00
2024-02-06T07:25:11.691Z,16.50
2024-02-06T07:27:39.873Z,16.30
2024-02-06T07:30:08.700Z,16.60
2024-02-06T07:32:38.781Z,16.60
2024-02-06T07:35:17.019Z,16.70
2024-02-06T07:37:47.827Z,16.80
2024-02-06T07:40:18.097Z,16.80
2024-02-06T07:42:55.075Z,16.60
2024-02-06T07:45:34.371Z,16.70
2024-02-06T07:48:02.495Z,16.70
2024-02-06T07:50:37.854Z,16.70
2024-02-06T07:53:06.497Z,16.70
2024-02-06T07:55:37.677Z,16.80
2024-02-06T07:58:05.980Z,16.80
2024-02-06T08:00:40.065Z,17.00
2024-02-06T08:03:17.742Z,17.00
2024-02-06T08:05:54.377Z,17.00
2024-02-06T08:08:31.455Z,16.90
2024-02-06T08:10:59.471Z,17.00
2024-02-06T08:13:29.947Z,17.00
2024-02-06T08:16:01.072Z,17.00
2024-02-06T08:18:33.736Z,17.00
2024-02-06T08:21:18.188Z,17.10
2024-02-06T08:23:49.535Z,15.90
2024-02-06T08:26:20.545Z,16.10
2024-02-06T08:28:48.594Z,15.40
2024-02-06T08:31:16.675Z,14.90
2024-02-06T08:33:45.840Z,14.60
2024-02-06T08:36:15.198Z,14.70
2024-02-06T08:38:47.661Z,14.50
2024-02-06T08:41:15.709Z,14.50
2024-02-06T08:43:52.580Z,14.90
2024-02-06T08:46:23.968Z,15.40
2024-02-06T08:48:55.234Z,15.80
2024-02-06T08:51:23.315Z,16.10
2024-02-06T08:53:52.590Z,16.30
2024-02-06T08:56:20.829Z,16.40
2024-02-06T08:58:48.986Z,16.40
2024-02-06T09:01:18.158Z,16.40
2024-02-06T09:03:46.185Z,16.40
2024-02-06T09:06:17.383Z,16.60
2024-02-06T09:08:48.294Z,16.60
2024-02-06T09:11:17.571Z,16.60
2024-02-06T09:13:45.493Z,16.60
2024-02-06T09:16:13.404Z,16.70
2024-02-06T09:18:44.495Z,16.70
2024-02-06T09:21:16.871Z,15.80
2024-02-06T09:23:44.903Z,15.00
2024-02-06T09:26:17.818Z,15.30
2024-02-06T09:28:45.748Z,15.50
2024-02-06T09:31:13.897Z,15.80
2024-02-06T09:33:41.906Z,15.90
2024-02-06T09:36:10.843Z,16.20
2024-02-06T09:38:39.017Z,16.30
2024-02-06T09:41:10.140Z,16.30
2024-02-06T09:43:45.320Z,16.30
2024-02-06T09:46:14.562Z,16.30
2024-02-06T09:48:45.812Z,16.30
2024-02-06T09:51:16.887Z,16.30
2024-02-06T09:53:45.500Z,16.30
2024-02-06T09:56:16.658Z,16.30
2024-02-06T09:58:49.382Z,16.30
2024-02-06T10:01:21.316Z,16.40
2024-02-06T10:03:51.452Z,16.40
2024-02-06T10:06:23.938Z,16.40
2024-02-06T10:08:52.021Z,16.40
2024-02-06T10:11:21.400Z,16.40
2024-02-06T10:13:50.874Z,16.50
2024-02-06T10:16:23.928Z,16.50
2024-02-06T10:18:56.176Z,16.50
2024-02-06T10:21:28.935Z,16.40
2024-02-06T10:24:02.626Z,16.40
2024-02-06T10:26:34.148Z,16.50
2024-02-06T10:29:08.055Z,16.40
2024-02-06T10:31:36.433Z,16.30
2024-02-06T10:34:19.023Z,16.40
2024-02-06T10:37:06.940Z,16.50
2024-02-06T10:39:35.188Z,16.40
2024-02-06T10:44:37.178Z,16.50
2024-02-06T10:47:05.845Z,16.60
2024-02-06T10:49:34.829Z,16.60
2024-02-06T10:52:07.134Z,16.70
2024-02-06T10:54:35.672Z,16.70
2024-02-06T10:57:08.431Z,16.70
2024-02-06T10:59:46.986Z,16.60
2024-02-06T11:02:31.396Z,16.60
2024-02-06T11:05:08.964Z,16.60
2024-02-06T11:07:42.354Z,16.60
2024-02-06T11:10:18.052Z,16.60
2024-02-06T11:13:06.887Z,16.60
2024-02-06T11:15:45.249Z,16.60
2024-02-06T11:18:16.061Z,16.60
2024-02-06T11:20:54.085Z,16.70
2024-02-06T11:23:23.708Z,16.70
2024-02-06T11:25:51.656Z,16.80
2024-02-06T11:28:20.985Z,16.80
2024-02-06T11:30:51.798Z,16.70
2024-02-06T11:33:37.584Z,16.70
2024-02-06T11:36:17.395Z,16.80
2024-02-06T11:38:48.135Z,16.90
2024-02-06T11:41:19.302Z,16.80
2024-02-06T11:43:56.456Z,16.90
2024-02-06T11:46:26.193Z,16.90
2024-02-06T11:49:17.716Z,16.90
2024-02-06T11:51:55.232Z,16.80
2024-02-06T11:54:30.403Z,16.80
2024-02-06T11:56:59.761Z,16.80
2024-02-06T11:59:30.210Z,16.80
2024-02-06T12:02:18.541Z,16.80
2024-02-06T12:04:52.127Z,16.80
2024-02-06T12:07:23.157Z,16.80
2024-02-06T12:09:51.707Z,16.80
2024-02-06T12:12:22.890Z,16.70
2024-02-06T12:15:11.901Z,16.80
2024-02-06T12:17:44.452Z,16.80
2024-02-06T12:20:13.985Z,16.70
2024-02-06T12:22:42.515Z,16.70
2024-02-06T12:25:15.662Z,16.70
2024-02-06T12:27:44.557Z,16.80
2024-02-06T12:30:27.034Z,16.80
2024-02-06T12:32:58.082Z,16.80
2024-02-06T12:35:26.471Z,16.80
2024-02-06T12:37:57.623Z,16.80
2024-02-06T12:40:37.829Z,16.80
2024-02-06T12:43:31.685Z,16.80
2024-02-06T12:46:03.232Z,16.80
2024-02-06T12:48:32.694Z,16.80
2024-02-06T12:51:03.862Z,16.80
2024-02-06T12:53:34.202Z,16.80
2024-02-06T12:56:02.347Z,16.70
2024-02-06T12:58:33.105Z,16.70
2024-02-06T13:01:11.257Z,16.70
2024-02-06T13:03:58.598Z,16.80
2024-02-06T13:06:27.627Z,16.70
2024-02-06T13:08:55.762Z,16.70
2024-02-06T13:11:23.705Z,16.70
2024-02-06T13:13:56.103Z,16.70
2024-02-06T13:16:31.366Z,16.70
2024-02-06T13:19:07.345Z,16.70
2024-02-06T13:21:41.719Z,16.80
2024-02-06T13:24:11.205Z,16.70
2024-02-06T13:26:42.185Z,16.70
2024-02-06T13:29:19.147Z,16.70
2024-02-06T13:31:50.340Z,16.70
2024-02-06T13:34:22.031Z,16.70
2024-02-06T13:36:50.406Z,16.60
2024-02-06T13:39:18.296Z,16.70
2024-02-06T13:41:48.947Z,16.80
2024-02-06T13:44:19.007Z,16.10
2024-02-06T13:46:47.077Z,16.20
2024-02-06T13:49:19.507Z,16.40
2024-02-06T13:51:47.592Z,16.40
2024-02-06T13:54:17.962Z,16.60
2024-02-06T13:56:51.740Z,16.60
2024-02-06T13:59:24.524Z,16.80
2024-02-06T14:02:08.934Z,16.80
2024-02-06T14:04:38.924Z,16.80
2024-02-06T14:07:18.498Z,16.70
2024-02-06T14:09:46.484Z,16.60
2024-02-06T14:12:18.155Z,16.70
2024-02-06T14:14:50.736Z,16.70
2024-02-06T14:17:27.164Z,16.70
2024-02-06T14:19:57.734Z,16.50
2024-02-06T14:22:25.812Z,16.60
2024-02-06T14:24:56.938Z,16.40
2024-02-06T14:27:25.091Z,16.60
2024-02-06T14:29:58.874Z,16.60
2024-02-06T14:32:47.074Z,16.60
2024-02-06T14:35:28.898Z,16.70
2024-02-06T14:37:56.816Z,16.80
2024-02-06T14:40:27.516Z,16.70
2024-02-06T14:43:01.589Z,16.80
2024-02-06T14:45:40.553Z,16.70
2024-02-06T14:48:11.645Z,16.60
2024-02-06T14:50:43.869Z,16.70
2024-02-06T14:53:11.828Z,16.80
2024-02-06T14:55:42.577Z,16.80
2024-02-06T14:58:18.696Z,16.80
2024-02-06T15:00:46.745Z,16.70
2024-02-06T15:03:14.763Z,16.80
2024-02-06T15:05:46.615Z,16.80
2024-02-06T15:08:14.731Z,16.90
2024-02-06T15:10:42.890Z,16.90
2024-02-06T15:13:13.932Z,16.80
2024-02-06T15:15:51.129Z,16.80
2024-02-06T15:18:24.566Z,16.80
2024-02-06T15:20:57.380Z,16.80
2024-02-06T15:23:36.167Z,16.80
2024-02-06T15:26:07.146Z,16.80
2024-02-06T15:28:35.186Z,16.80
2024-02-06T15:31:04.241Z,16.80
2024-02-06T15:33:35.310Z,16.80
2024-02-06T15:36:08.423Z,16.80
2024-02-06T15:38:36.370Z,16.80
2024-02-06T15:41:04.318Z,16.80
2024-02-06T15:43:35.022Z,16.80
2024-02-06T15:46:04.602Z,16.70
2024-02-06T15:48:32.714Z,16.80
2024-02-06T15:51:05.117Z,16.80
2024-02-06T15:53:37.305Z,16.70
2024-02-06T15:56:08.908Z,16.80
2024-02-06T15:58:40.084Z,16.80
2024-02-06T16:01:13.832Z,16.80
2024-02-06T16:03:41.784Z,16.70
2024-02-06T16:06:15.974Z,16.70
2024-02-06T16:08:45.257Z,16.80
2024-02-06T16:11:18.741Z,16.60
2024-02-06T16:13:46.718Z,16.60
2024-02-06T16:16:20.140Z,16.70
2024-02-06T16:18:54.468Z,16.70
2024-02-06T16:21:28.613Z,16.70
2024-02-06T16:24:03.593Z,16.70
2024-02-06T16:26:33.801Z,16.70
2024-02-06T16:29:07.895Z,16.70
2024-02-06T16:31:35.885Z,16.70
2024-02-06T16:34:06.436Z,16.70
2024-02-06T16:36:34.406Z,16.80
2024-02-06T16:39:05.193Z,16.90
2024-02-06T16:41:34.490Z,16.90
2024-02-06T16:44:05.788Z,17.00
2024-02-06T16:46:34.566Z,17.00
2024-02-06T16:49:07.984Z,17.00
2024-02-06T16:51:42.778Z,17.00
2024-02-06T16:54:38.020Z,17.00
2024-02-06T16:57:06.882Z,17.00
2024-02-06T16:59:34.970Z,17.00
2024-02-06T17:02:02.895Z,17.00
2024-02-06T17:04:37.190Z,17.00
2024-02-06T17:07:07.748Z,17.00
2024-02-06T17:09:40.121Z,17.00
2024-02-06T17:12:08.626Z,17.00
2024-02-06T17:14:39.658Z,17.00
2024-02-06T17:17:09.666Z,17.00
2024-02-06T17:19:40.887Z,17.10
2024-02-06T17:22:09.849Z,17.10
2024-02-06T17:24:39.437Z,17.10
2024-02-06T17:27:10.492Z,17.00
2024-02-06T17:29:44.216Z,17.00
2024-02-06T17:32:20.718Z,17.00
2024-02-06T17:34:51.695Z,17.00
2024-02-06T17:37:22.582Z,17.00
2024-02-06T17:39:54.355Z,17.00
2024-02-06T17:42:25.424Z,16.90
2024-02-06T17:44:53.537Z,16.90
2024-02-06T17:47:24.490Z,16.90
2024-02-06T17:49:55.662Z,16.90
2024-02-06T17:52:23.830Z,17.00
2024-02-06T17:54:56.194Z,16.90
2024-02-06T17:57:24.104Z,16.90
2024-02-06T17:59:52.094Z,16.90
2024-02-06T18:02:25.073Z,16.90
2024-02-06T18:04:59.998Z,16.90
2024-02-06T18:07:28.654Z,16.90
2024-02-06T18:10:00.869Z,17.00
2024-02-06T18:12:28.831Z,17.00
2024-02-06T18:15:02.763Z,16.90
2024-02-06T18:17:37.860Z,17.00
2024-02-06T18:20:13.811Z,17.00
2024-02-06T18:22:41.933Z,17.00
2024-02-06T18:25:14.360Z,17.00
2024-02-06T18:27:45.159Z,16.90
2024-02-06T18:30:14.293Z,16.90
2024-02-06T18:32:42.274Z,17.00
2024-02-06T18:35:10.783Z,17.00
2024-02-06T18:37:48.162Z,16.90
2024-02-06T18:40:17.668Z,17.00
2024-02-06T18:42:51.385Z,17.00
2024-02-06T18:45:22.123Z,17.00
2024-02-06T18:47:54.730Z,16.90
2024-02-06T18:50:22.685Z,16.90
2024-02-06T18:53:01.253Z,16.90
2024-02-06T18:55:40.079Z,17.10
2024-02-06T18:58:11.114Z,17.00
2024-02-06T19:00:42.187Z,17.10
2024-02-06T19:03:13.112Z,17.00
2024-02-06T19:05:44.245Z,17.00
2024-02-06T19:08:14.782Z,17.00
2024-02-06T19:10:44.188Z,17.00
2024-02-06T19:13:17.514Z,17.00
2024-02-06T19:15:45.567Z,17.10
2024-02-06T19:18:13.735Z,17.10
2024-02-06T19:20:41.720Z,17.00
2024-02-06T19:23:12.659Z,17.00
2024-02-06T19:25:40.666Z,17.10
2024-02-06T19:28:12.239Z,17.00
2024-02-06T19:30:42.019Z,17.10
2024-02-06T19:33:14.123Z,17.10
2024-02-06T19:35:42.048Z,17.10
2024-02-06T19:38:18.656Z,17.00
2024-02-06T19:40:46.666Z,17.00
2024-02-06T19:43:16.535Z,17.10
2024-02-06T19:45:52.728Z,17.00
2024-02-06T19:48:24.072Z,17.10
2024-02-06T19:50:53.497Z,17.00
2024-02-06T19:53:22.075Z,17.00
2024-02-06T19:55:50.372Z,17.00
2024-02-06T19:58:19.991Z,17.10
2024-02-06T20:01:04.179Z,17.10
2024-02-06T20:03:39.411Z,17.10
2024-02-06T20:06:09.507Z,17.00
2024-02-06T20:08:40.682Z,17.00
2024-02-06T20:11:10.765Z,17.10
2024-02-06T20:13:42.259Z,17.10
2024-02-06T20:16:13.747Z,17.10
2024-02-06T20:18:41.796Z,17.00
2024-02-06T20:21:28.664Z,16.90
2024-02-06T20:24:11.897Z,17.00
2024-02-06T20:26:52.606Z,17.00
2024-02-06T20:29:25.762Z,17.00
2024-02-06T20:31:54.033Z,17.00
2024-02-06T20:34:27.172Z,17.10
2024-02-06T20:36:57.962Z,17.20
2024-02-06T20:39:33.027Z,17.30
2024-02-06T20:42:00.923Z,17.40
2024-02-06T20:44:33.208Z,17.30
2024-02-06T20:47:03.916Z,17.30
2024-02-06T20:49:35.243Z,17.30
2024-02-06T20:52:03.252Z,17.30
2024-02-06T20:54:36.834Z,17.30
2024-02-06T20:57:05.022Z,17.20
2024-02-06T20:59:35.752Z,17.30
2024-02-06T21:02:05.916Z,17.30
2024-02-06T21:04:37.131Z,17.30
2024-02-06T21:07:08.548Z,17.30
2024-02-06T21:09:42.662Z,17.30
2024-02-06T21:12:15.850Z,17.20
2024-02-06T21:17:32.144Z,17.20
2024-02-06T21:20:00.335Z,17.30
2024-02-06T21:22:28.451Z,17.30
2024-02-06T21:24:56.549Z,17.30
2024-02-06T21:27:30.759Z,17.20
2024-02-06T21:30:12.898Z,17.10
2024-02-06T21:32:44.316Z,17.10
2024-02-06T21:35:15.338Z,17.10
2024-02-06T21:37:49.391Z,17.00
2024-02-06T21:40:19.951Z,17.00
2024-02-06T21:42:50.706Z,17.00
2024-02-06T21:45:20.297Z,17.00
2024-02-06T21:47:50.528Z,16.90
2024-02-06T21:50:21.323Z,16.90
2024-02-06T21:52:52.455Z,16.90
2024-02-06T21:55:20.458Z,16.90
2024-02-06T21:57:50.199Z,16.80
2024-02-06T22:00:34.841Z,16.90
2024-02-06T22:03:08.078Z,16.90
2024-02-06T22:05:36.850Z,16.80
2024-02-06T22:08:14.227Z,16.80
2024-02-06T22:10:52.739Z,16.80
2024-02-06T22:13:23.987Z,16.90
2024-02-06T22:15:55.581Z,16.90
2024-02-06T22:18:23.523Z,16.90
2024-02-06T22:20:51.456Z,16.90
2024-02-06T22:23:24.877Z,16.80
2024-02-06T22:25:55.833Z,16.90
2024-02-06T22:28:23.914Z,16.80
2024-02-06T22:30:55.458Z,16.90
2024-02-06T22:33:23.771Z,16.90
2024-02-06T22:35:59.242Z,16.80
2024-02-06T22:38:29.822Z,16.90
2024-02-06T22:41:01.242Z,16.90
2024-02-06T22:43:41.072Z,16.90
2024-02-06T22:46:12.132Z,16.90
2024-02-06T22:48:45.953Z,16.90
2024-02-06T22:51:16.685Z,16.90
2024-02-06T22:53:44.677Z,16.90
2024-02-06T22:56:14.750Z,16.90
2024-02-06T22:58:42.894Z,16.90
2024-02-06T23:01:14.723Z,16.90
2024-02-06T23:03:51.271Z,16.90
2024-02-06T23:06:27.962Z,16.80
2024-02-06T23:08:55.827Z,16.80
2024-02-06T23:11:23.880Z,16.90
2024-02-06T23:13:57.443Z,16.90
2024-02-06T23:16:27.046Z,16.80
2024-02-06T23:18:58.459Z,16.80
2024-02-06T23:21:44.679Z,16.80
2024-02-06T23:24:12.617Z,16.80
2024-02-06T23:26:49.748Z,16.80
2024-02-06T23:29:23.795Z,16.80
2024-02-06T23:31:56.061Z,16.80
2024-02-06T23:34:29.951Z,16.80
2024-02-06T23:36:57.882Z,16.80
2024-02-06T23:39:28.616Z,16.80
2024-02-06T23:41:56.485Z,16.90
2024-02-06T23:44:24.388Z,16.90
2024-02-06T23:46:56.703Z,16.90
2024-02-06T23:49:28.428Z,16.80
2024-02-06T23:52:05.785Z,16.80
2024-02-06T23:54:39.911Z,16.80
2024-02-06T23:57:08.416Z,16.80
2024-02-06T23:59:48.776Z,16.80
